createdAt,value
2018-12-19T00:01:46.473Z,1.80
2018-12-19T00:04:15.084Z,1.80
2018-12-19T00:06:43.620Z,1.80
2018-12-19T00:09:12.106Z,1.80
2018-12-19T00:11:40.607Z,1.80
2018-12-19T00:14:09.223Z,1.80
2018-12-19T00:16:37.740Z,1.80
2018-12-19T00:19:06.352Z,1.80
2018-12-19T00:21:35.775Z,1.80
2018-12-19T00:24:04.263Z,1.80
2018-12-19T00:26:34.459Z,1.80
2018-12-19T00:29:02.966Z,1.80
2018-12-19T00:31:31.437Z,1.80
2018-12-19T00:34:00.194Z,1.80
2018-12-19T00:36:29.766Z,1.80
2018-12-19T00:38:58.379Z,1.90
2018-12-19T00:41:27.502Z,1.80
2018-12-19T00:43:56.156Z,1.80
2018-12-19T00:46:24.682Z,1.80
2018-12-19T00:48:53.241Z,1.80
2018-12-19T00:51:21.980Z,1.80
2018-12-19T00:53:50.456Z,1.80
2018-12-19T00:56:18.975Z,1.80
2018-12-19T00:58:47.892Z,1.80
2018-12-19T01:01:16.431Z,1.70
2018-12-19T01:03:45.184Z,1.70
2018-12-19T01:06:13.722Z,1.70
2018-12-19T01:08:42.286Z,1.80
2018-12-19T01:11:10.757Z,1.70
2018-12-19T01:13:39.366Z,1.70
2018-12-19T01:16:08.913Z,1.70
2018-12-19T01:18:37.457Z,1.70
2018-12-19T01:21:06.019Z,1.60
2018-12-19T01:23:35.056Z,1.60
2018-12-19T01:26:03.698Z,1.50
2018-12-19T01:28:32.475Z,1.50
2018-12-19T01:31:00.973Z,1.60
2018-12-19T01:33:29.490Z,1.60
2018-12-19T01:35:58.064Z,1.60
2018-12-19T01:38:26.555Z,1.60
2018-12-19T01:40:55.240Z,1.50
2018-12-19T01:43:23.759Z,1.60
2018-12-19T01:45:52.272Z,1.50
2018-12-19T01:48:20.843Z,1.50
2018-12-19T01:50:50.130Z,1.60
2018-12-19T01:53:18.777Z,1.50
2018-12-19T01:55:47.621Z,1.50
2018-12-19T01:58:16.183Z,1.50
2018-12-19T02:00:45.492Z,1.50
2018-12-19T02:03:14.438Z,1.60
2018-12-19T02:05:43.079Z,1.60
2018-12-19T02:08:12.513Z,1.60
2018-12-19T02:10:41.188Z,1.60
2018-12-19T02:13:09.694Z,1.60
2018-12-19T02:15:38.252Z,1.60
2018-12-19T02:18:06.809Z,1.60
2018-12-19T02:20:35.772Z,1.60
2018-12-19T02:23:04.407Z,1.60
2018-12-19T02:25:33.171Z,1.60
2018-12-19T02:28:01.723Z,1.60
2018-12-19T02:30:30.269Z,1.60
2018-12-19T02:32:59.773Z,1.60
2018-12-19T02:35:29.040Z,1.50
2018-12-19T02:37:57.591Z,1.60
2018-12-19T02:40:26.054Z,1.50
2018-12-19T02:42:54.665Z,1.60
2018-12-19T02:45:23.211Z,1.60
2018-12-19T02:47:51.927Z,1.60
2018-12-19T02:50:20.507Z,1.60
2018-12-19T02:52:48.987Z,1.60
2018-12-19T02:55:18.369Z,1.50
2018-12-19T02:57:47.463Z,1.60
2018-12-19T03:00:16.696Z,1.50
2018-12-19T03:02:45.210Z,1.50
2018-12-19T03:05:13.896Z,1.50
2018-12-19T03:07:42.517Z,1.50
2018-12-19T03:10:11.849Z,1.40
2018-12-19T03:12:40.522Z,1.50
2018-12-19T03:15:09.637Z,1.40
2018-12-19T03:17:38.171Z,1.40
2018-12-19T03:20:07.684Z,1.40
2018-12-19T03:22:36.297Z,1.40
2018-12-19T03:25:04.913Z,1.40
2018-12-19T03:27:34.124Z,1.40
2018-12-19T03:30:02.628Z,1.40
2018-12-19T03:32:31.334Z,1.30
2018-12-19T03:35:00.575Z,1.30
2018-12-19T03:37:29.830Z,1.30
2018-12-19T03:39:59.190Z,1.20
2018-12-19T03:42:27.815Z,1.20
2018-12-19T03:44:57.089Z,1.20
2018-12-19T03:47:25.637Z,1.10
2018-12-19T03:49:54.453Z,1.00
2018-12-19T03:52:23.946Z,1.00
2018-12-19T03:54:53.675Z,1.00
2018-12-19T03:57:23.291Z,1.00
2018-12-19T03:59:52.655Z,0.90
2018-12-19T04:02:22.097Z,0.90
2018-12-19T04:04:50.905Z,0.90
2018-12-19T04:07:19.440Z,0.90
2018-12-19T04:09:48.093Z,0.90
2018-12-19T04:12:16.581Z,0.90
2018-12-19T04:14:45.061Z,0.90
2018-12-19T04:17:14.432Z,0.90
2018-12-19T04:19:43.179Z,0.90
2018-12-19T04:22:11.789Z,0.90
2018-12-19T04:24:41.076Z,0.90
2018-12-19T04:27:09.758Z,1.00
2018-12-19T04:29:39.294Z,1.00
2018-12-19T04:32:07.905Z,1.00
2018-12-19T04:34:36.720Z,1.00
2018-12-19T04:37:05.227Z,1.00
2018-12-19T04:39:33.836Z,1.00
2018-12-19T04:42:02.369Z,1.00
2018-12-19T04:44:30.873Z,1.00
2018-12-19T04:47:00.505Z,1.00
2018-12-19T04:49:29.780Z,1.00
2018-12-19T04:51:58.391Z,1.00
2018-12-19T04:54:27.339Z,1.00
2018-12-19T04:56:56.087Z,1.00
2018-12-19T04:59:24.657Z,1.10
2018-12-19T05:01:53.140Z,1.10
2018-12-19T05:04:21.724Z,1.10
2018-12-19T05:06:50.232Z,1.10
2018-12-19T05:09:18.880Z,1.10
2018-12-19T05:11:47.531Z,1.10
2018-12-19T05:14:16.515Z,1.10
2018-12-19T05:16:45.004Z,1.10
2018-12-19T05:19:13.837Z,1.10
2018-12-19T05:21:42.491Z,1.10
2018-12-19T05:24:11.068Z,1.10
2018-12-19T05:26:39.575Z,1.10
2018-12-19T05:29:08.049Z,1.00
2018-12-19T05:31:37.266Z,1.00
2018-12-19T05:34:05.962Z,1.10
2018-12-19T05:36:35.360Z,1.10
2018-12-19T05:39:06.064Z,1.10
2018-12-19T05:41:34.967Z,1.10
2018-12-19T05:44:04.346Z,1.20
2018-12-19T05:46:33.614Z,1.10
2018-12-19T05:49:02.330Z,1.20
2018-12-19T05:51:30.828Z,1.20
2018-12-19T05:54:00.016Z,1.20
2018-12-19T05:56:29.058Z,1.20
2018-12-19T05:58:58.054Z,1.20
2018-12-19T06:01:26.672Z,1.30
2018-12-19T06:03:55.593Z,1.30
2018-12-19T06:06:24.084Z,1.30
2018-12-19T06:08:53.192Z,1.30
2018-12-19T06:11:21.726Z,1.30
2018-12-19T06:13:50.448Z,1.30
2018-12-19T06:16:19.107Z,1.20
2018-12-19T06:18:47.643Z,1.20
2018-12-19T06:21:16.242Z,1.20
2018-12-19T06:23:44.752Z,1.20
2018-12-19T06:26:13.508Z,1.10
2018-12-19T06:28:42.704Z,1.10
2018-12-19T06:31:11.195Z,1.10
2018-12-19T06:33:40.232Z,1.10
2018-12-19T06:36:08.826Z,1.10
2018-12-19T06:38:37.768Z,1.10
2018-12-19T06:41:06.950Z,1.10
2018-12-19T06:43:36.269Z,1.10
2018-12-19T06:46:05.468Z,1.10
2018-12-19T06:48:35.664Z,1.10
2018-12-19T06:51:04.202Z,1.10
2018-12-19T06:53:32.716Z,1.10
2018-12-19T06:56:01.276Z,1.10
2018-12-19T06:58:29.844Z,1.10
2018-12-19T07:00:58.403Z,1.10
2018-12-19T07:03:27.044Z,1.20
2018-12-19T07:05:55.563Z,1.20
2018-12-19T07:08:24.100Z,1.20
2018-12-19T07:10:52.642Z,1.20
2018-12-19T07:13:21.185Z,1.20
2018-12-19T07:15:50.002Z,1.20
2018-12-19T07:18:18.603Z,1.20
2018-12-19T07:20:48.324Z,1.20
2018-12-19T07:23:16.833Z,1.20
2018-12-19T07:25:47.278Z,1.20
2018-12-19T07:28:15.993Z,1.20
2018-12-19T07:30:44.604Z,1.20
2018-12-19T07:33:13.191Z,1.20
2018-12-19T07:35:42.638Z,1.20
2018-12-19T07:38:11.122Z,1.20
2018-12-19T07:40:45.494Z,1.20
2018-12-19T07:43:10.261Z,1.20
2018-12-19T07:45:38.886Z,1.20
2018-12-19T07:48:07.455Z,1.20
2018-12-19T07:50:35.982Z,1.20
2018-12-19T07:53:04.803Z,1.20
2018-12-19T07:55:36.505Z,1.20
2018-12-19T07:58:05.574Z,1.20
2018-12-19T08:00:34.159Z,1.20
2018-12-19T08:03:02.910Z,1.30
2018-12-19T08:05:31.478Z,1.30
2018-12-19T08:08:00.006Z,1.30
2018-12-19T08:10:29.151Z,1.30
2018-12-19T08:12:57.770Z,1.40
2018-12-19T08:15:27.621Z,1.40
2018-12-19T08:17:56.240Z,1.40
2018-12-19T08:20:24.737Z,1.40
2018-12-19T08:22:53.349Z,1.50
2018-12-19T08:25:21.885Z,1.50
2018-12-19T08:27:50.368Z,1.60
2018-12-19T08:30:19.222Z,1.60
2018-12-19T08:32:47.745Z,1.60
2018-12-19T08:35:16.300Z,1.60
2018-12-19T08:37:45.557Z,1.60
2018-12-19T08:40:14.373Z,1.60
2018-12-19T08:42:42.945Z,1.70
2018-12-19T08:45:11.526Z,1.70
2018-12-19T08:47:41.061Z,1.70
2018-12-19T08:50:10.417Z,1.70
2018-12-19T08:52:40.007Z,1.80
2018-12-19T08:55:09.406Z,1.80
2018-12-19T08:57:37.870Z,1.80
2018-12-19T09:00:08.460Z,1.90
2018-12-19T09:02:38.299Z,2.00
2018-12-19T09:05:07.876Z,2.10
2018-12-19T09:07:36.747Z,2.20
2018-12-19T09:10:06.339Z,2.20
2018-12-19T09:12:34.833Z,2.30
2018-12-19T09:15:04.003Z,2.30
2018-12-19T09:17:32.708Z,2.40
2018-12-19T09:20:01.719Z,2.40
2018-12-19T09:22:30.247Z,2.40
2018-12-19T09:24:59.326Z,2.40
2018-12-19T09:27:29.284Z,2.50
2018-12-19T09:29:57.780Z,2.50
2018-12-19T09:32:26.386Z,2.50
2018-12-19T09:34:54.889Z,2.60
2018-12-19T09:37:24.142Z,2.60
2018-12-19T09:39:53.379Z,2.60
2018-12-19T09:42:23.248Z,2.70
2018-12-19T09:44:52.026Z,2.70
2018-12-19T09:47:20.551Z,2.70
2018-12-19T09:49:49.022Z,2.80
2018-12-19T09:52:17.604Z,2.80
2018-12-19T09:54:46.176Z,2.90
2018-12-19T09:57:15.575Z,3.00
2018-12-19T09:59:44.118Z,3.00
2018-12-19T10:02:13.266Z,3.20
2018-12-19T10:04:41.876Z,3.30
2018-12-19T10:07:10.392Z,3.40
2018-12-19T10:09:39.001Z,3.50
2018-12-19T10:12:07.527Z,3.60
2018-12-19T10:14:36.059Z,3.70
2018-12-19T10:17:04.727Z,3.80
2018-12-19T10:19:33.356Z,3.90
2018-12-19T10:22:01.994Z,4.00
2018-12-19T10:24:35.948Z,4.00
2018-12-19T10:27:04.438Z,4.10
2018-12-19T10:29:32.964Z,4.20
2018-12-19T10:32:01.455Z,4.30
2018-12-19T10:34:30.110Z,4.40
2018-12-19T10:36:59.138Z,4.50
2018-12-19T10:39:27.783Z,4.50
2018-12-19T10:41:56.809Z,4.60
2018-12-19T10:44:25.337Z,4.70
2018-12-19T10:46:54.057Z,4.70
2018-12-19T10:49:22.620Z,4.80
2018-12-19T10:51:51.160Z,4.90
2018-12-19T10:54:19.700Z,4.90
2018-12-19T10:56:48.209Z,4.90
2018-12-19T10:59:16.806Z,5.00
2018-12-19T11:01:45.520Z,5.00
2018-12-19T11:04:14.001Z,5.00
2018-12-19T11:06:42.547Z,5.00
2018-12-19T11:09:11.114Z,5.10
2018-12-19T11:11:39.831Z,5.20
2018-12-19T11:14:08.945Z,5.20
2018-12-19T11:16:37.544Z,5.20
2018-12-19T11:19:06.101Z,5.20
2018-12-19T11:21:34.646Z,5.20
2018-12-19T11:24:05.323Z,5.10
2018-12-19T11:26:34.096Z,5.10
2018-12-19T11:29:02.909Z,5.00
2018-12-19T11:31:31.512Z,5.00
2018-12-19T11:34:00.008Z,5.00
2018-12-19T11:36:28.569Z,5.10
2018-12-19T11:38:57.163Z,5.10
2018-12-19T11:41:25.679Z,5.10
2018-12-19T11:43:54.839Z,5.10
2018-12-19T11:46:23.369Z,5.10
2018-12-19T11:48:51.909Z,5.10
2018-12-19T11:51:20.468Z,5.10
2018-12-19T11:53:49.011Z,5.10
2018-12-19T11:56:17.514Z,5.10
2018-12-19T11:58:45.992Z,5.10
2018-12-19T12:01:15.107Z,5.20
2018-12-19T12:03:43.551Z,5.20
2018-12-19T12:06:12.072Z,5.20
2018-12-19T12:08:40.609Z,5.20
2018-12-19T12:11:09.134Z,5.20
2018-12-19T12:13:37.723Z,5.30
2018-12-19T12:16:06.304Z,5.30
2018-12-19T12:18:34.782Z,5.30
2018-12-19T12:21:03.237Z,5.30
2018-12-19T12:23:32.126Z,5.40
2018-12-19T12:26:00.775Z,5.40
2018-12-19T12:28:29.261Z,5.40
2018-12-19T12:30:57.848Z,5.40
2018-12-19T12:33:26.369Z,5.40
2018-12-19T12:35:55.123Z,5.40
2018-12-19T12:38:23.907Z,5.40
2018-12-19T12:40:52.490Z,5.50
2018-12-19T12:43:21.036Z,5.50
2018-12-19T12:45:49.994Z,5.50
2018-12-19T12:48:18.458Z,5.50
2018-12-19T12:50:47.008Z,5.50
2018-12-19T12:53:16.146Z,5.60
2018-12-19T12:55:44.855Z,5.50
2018-12-19T12:58:13.378Z,5.60
2018-12-19T13:00:43.313Z,5.60
2018-12-19T13:03:11.937Z,5.70
2018-12-19T13:05:41.438Z,5.70
2018-12-19T13:08:09.968Z,5.80
2018-12-19T13:10:38.504Z,5.80
2018-12-19T13:13:07.025Z,5.80
2018-12-19T13:15:40.932Z,5.80
2018-12-19T13:18:10.000Z,5.80
2018-12-19T13:20:39.687Z,5.80
2018-12-19T13:23:08.427Z,5.90
2018-12-19T13:25:36.989Z,5.90
2018-12-19T13:28:06.810Z,5.90
2018-12-19T13:30:35.721Z,5.90
2018-12-19T13:33:04.896Z,5.90
2018-12-19T13:35:33.940Z,5.90
2018-12-19T13:38:02.567Z,6.00
2018-12-19T13:40:31.106Z,6.00
2018-12-19T13:42:59.608Z,6.00
2018-12-19T13:45:28.174Z,6.00
2018-12-19T13:47:57.922Z,6.00
2018-12-19T13:50:26.638Z,6.00
2018-12-19T13:52:55.182Z,6.00
2018-12-19T13:55:24.648Z,6.00
2018-12-19T13:57:53.175Z,6.00
2018-12-19T14:00:22.390Z,6.00
2018-12-19T14:02:50.938Z,6.10
2018-12-19T14:05:19.981Z,6.10
2018-12-19T14:07:49.428Z,6.10
2018-12-19T14:10:17.909Z,6.10
2018-12-19T14:12:46.429Z,6.10
2018-12-19T14:15:15.224Z,6.10
2018-12-19T14:17:43.996Z,6.10
2018-12-19T14:20:12.458Z,6.00
2018-12-19T14:22:40.951Z,6.00
2018-12-19T14:25:09.909Z,6.10
2018-12-19T14:27:38.436Z,6.00
2018-12-19T14:30:08.243Z,6.10
2018-12-19T14:32:36.886Z,6.10
2018-12-19T14:35:06.688Z,6.00
2018-12-19T14:40:15.943Z,6.00
2018-12-19T14:42:44.458Z,6.00
2018-12-19T14:45:14.550Z,6.00
2018-12-19T14:47:43.277Z,6.00
2018-12-19T14:50:12.284Z,6.00
2018-12-19T14:52:41.303Z,6.10
2018-12-19T14:55:10.538Z,6.10
2018-12-19T14:57:39.598Z,6.10
2018-12-19T15:00:10.122Z,6.00
2018-12-19T15:02:38.749Z,6.00
2018-12-19T15:05:07.430Z,6.00
2018-12-19T15:07:35.956Z,6.00
2018-12-19T15:10:05.059Z,6.00
2018-12-19T15:12:33.793Z,5.90
2018-12-19T15:15:02.378Z,5.90
2018-12-19T15:17:30.948Z,5.90
2018-12-19T15:19:59.456Z,5.90
2018-12-19T15:22:27.990Z,5.80
2018-12-19T15:24:56.689Z,5.80
2018-12-19T15:27:25.203Z,5.70
2018-12-19T15:29:53.702Z,5.70
2018-12-19T15:32:22.382Z,5.70
2018-12-19T15:34:50.885Z,5.70
2018-12-19T15:37:19.496Z,5.70
2018-12-19T15:39:48.912Z,5.70
2018-12-19T15:42:18.561Z,5.60
2018-12-19T15:44:47.193Z,5.60
2018-12-19T15:47:16.268Z,5.60
2018-12-19T15:49:44.764Z,5.60
2018-12-19T15:52:13.462Z,5.60
2018-12-19T15:54:42.048Z,5.50
2018-12-19T15:57:11.158Z,5.50
2018-12-19T15:59:39.625Z,5.50
2018-12-19T16:02:08.354Z,5.40
2018-12-19T16:04:38.176Z,5.40
2018-12-19T16:07:06.734Z,5.40
2018-12-19T16:09:35.301Z,5.40
2018-12-19T16:12:03.958Z,5.30
2018-12-19T16:14:32.438Z,5.30
2018-12-19T16:17:01.035Z,5.30
2018-12-19T16:19:29.583Z,5.30
2018-12-19T16:21:58.588Z,5.30
2018-12-19T16:24:27.502Z,5.30
2018-12-19T16:26:56.013Z,5.30
2018-12-19T16:29:24.592Z,5.20
2018-12-19T16:31:53.222Z,5.20
2018-12-19T16:34:21.705Z,5.30
2018-12-19T16:36:50.377Z,5.20
2018-12-19T16:39:18.929Z,5.20
2018-12-19T16:41:47.488Z,5.20
2018-12-19T16:44:16.533Z,5.20
2018-12-19T16:46:47.011Z,5.20
2018-12-19T16:49:15.529Z,5.20
2018-12-19T16:51:44.780Z,5.20
2018-12-19T16:54:14.120Z,5.10
2018-12-19T16:56:43.220Z,5.10
2018-12-19T16:59:11.770Z,5.10
2018-12-19T17:01:45.173Z,5.10
2018-12-19T17:04:14.448Z,5.10
2018-12-19T17:06:43.857Z,5.10
2018-12-19T17:09:12.955Z,5.10
2018-12-19T17:11:41.441Z,5.20
2018-12-19T17:14:09.955Z,5.10
2018-12-19T17:16:38.504Z,5.20
2018-12-19T17:19:07.222Z,5.20
2018-12-19T17:21:36.344Z,5.20
2018-12-19T17:24:05.776Z,5.20
2018-12-19T17:26:34.420Z,5.20
2018-12-19T17:29:02.925Z,5.20
2018-12-19T17:31:31.586Z,5.20
2018-12-19T17:34:00.113Z,5.20
2018-12-19T17:36:28.636Z,5.20
2018-12-19T17:38:57.152Z,5.20
2018-12-19T17:41:25.787Z,5.20
2018-12-19T17:43:54.921Z,5.20
2018-12-19T17:46:23.389Z,5.20
2018-12-19T17:48:52.027Z,5.20
2018-12-19T17:51:20.521Z,5.20
2018-12-19T17:53:49.354Z,5.20
2018-12-19T17:56:19.077Z,5.20
2018-12-19T17:58:47.839Z,5.20
2018-12-19T18:01:16.494Z,5.20
2018-12-19T18:03:44.999Z,5.20
2018-12-19T18:06:13.484Z,5.30
2018-12-19T18:08:44.946Z,5.30
2018-12-19T18:11:13.467Z,5.30
2018-12-19T18:13:43.667Z,5.30
2018-12-19T18:16:12.182Z,5.30
2018-12-19T18:18:40.772Z,5.30
2018-12-19T18:21:09.347Z,5.20
2018-12-19T18:23:38.150Z,5.20
2018-12-19T18:26:06.837Z,5.20
2018-12-19T18:28:35.294Z,5.30
2018-12-19T18:31:03.850Z,5.20
2018-12-19T18:33:32.525Z,5.20
2018-12-19T18:36:01.237Z,5.20
2018-12-19T18:38:30.069Z,5.20
2018-12-19T18:40:58.579Z,5.20
2018-12-19T18:43:27.071Z,5.20
2018-12-19T18:45:55.679Z,5.20
2018-12-19T18:48:24.304Z,5.20
2018-12-19T18:50:52.892Z,5.20
2018-12-19T18:53:21.597Z,5.20
2018-12-19T18:55:50.142Z,5.20
2018-12-19T18:58:18.975Z,5.20
2018-12-19T19:00:48.291Z,5.10
2018-12-19T19:03:16.933Z,5.10
2018-12-19T19:05:45.560Z,5.20
2018-12-19T19:08:14.079Z,5.10
2018-12-19T19:10:42.666Z,5.20
2018-12-19T19:13:11.907Z,5.10
2018-12-19T19:15:41.285Z,5.10
2018-12-19T19:18:10.403Z,5.10
2018-12-19T19:20:38.844Z,5.10
2018-12-19T19:23:07.762Z,5.10
2018-12-19T19:25:36.257Z,5.10
2018-12-19T19:28:04.758Z,5.10
2018-12-19T19:30:33.271Z,5.10
2018-12-19T19:33:01.874Z,5.10
2018-12-19T19:35:30.594Z,5.10
2018-12-19T19:37:59.113Z,5.10
2018-12-19T19:40:27.582Z,5.10
2018-12-19T19:42:56.574Z,5.00
2018-12-19T19:45:25.198Z,5.00
2018-12-19T19:47:55.098Z,5.00
2018-12-19T19:50:23.569Z,5.00
2018-12-19T19:52:52.101Z,5.10
2018-12-19T19:55:20.599Z,5.00
2018-12-19T19:57:49.068Z,5.10
2018-12-19T20:00:22.454Z,5.10
2018-12-19T20:02:50.940Z,5.10
2018-12-19T20:05:19.602Z,5.00
2018-12-19T20:07:48.131Z,5.00
2018-12-19T20:10:17.753Z,5.00
2018-12-19T20:12:46.281Z,5.00
2018-12-19T20:15:14.904Z,5.00
2018-12-19T20:17:43.369Z,5.00
2018-12-19T20:20:11.881Z,5.00
2018-12-19T20:22:40.471Z,5.00
2018-12-19T20:25:09.308Z,5.00
2018-12-19T20:27:37.818Z,5.00
2018-12-19T20:30:09.427Z,4.90
2018-12-19T20:32:38.050Z,5.00
2018-12-19T20:35:07.380Z,5.00
2018-12-19T20:37:35.979Z,5.00
2018-12-19T20:40:04.974Z,5.00
2018-12-19T20:42:33.423Z,5.00
2018-12-19T20:45:02.629Z,5.00
2018-12-19T20:47:31.615Z,5.00
2018-12-19T20:50:00.146Z,5.00
2018-12-19T20:52:28.680Z,5.00
2018-12-19T20:54:57.157Z,5.00
2018-12-19T20:57:25.659Z,5.00
2018-12-19T20:59:54.531Z,5.00
2018-12-19T21:02:24.904Z,5.00
2018-12-19T21:04:53.402Z,5.00
2018-12-19T21:07:22.682Z,5.00
2018-12-19T21:09:51.105Z,5.00
2018-12-19T21:12:19.530Z,5.00
2018-12-19T21:14:48.129Z,5.00
2018-12-19T21:17:22.342Z,5.00
2018-12-19T21:19:50.918Z,5.00
2018-12-19T21:22:19.405Z,5.00
2018-12-19T21:24:47.873Z,5.00
2018-12-19T21:27:16.457Z,5.00
2018-12-19T21:29:46.074Z,5.00
2018-12-19T21:32:14.526Z,5.00
2018-12-19T21:34:42.997Z,5.10
2018-12-19T21:37:11.485Z,5.00
2018-12-19T21:39:40.047Z,5.10
2018-12-19T21:42:08.636Z,5.00
2018-12-19T21:44:37.116Z,5.10
2018-12-19T21:47:06.501Z,5.10
2018-12-19T21:49:35.109Z,5.20
2018-12-19T21:52:04.616Z,5.20
2018-12-19T21:54:33.863Z,5.10
2018-12-19T21:57:03.062Z,5.10
2018-12-19T21:59:32.238Z,5.10
2018-12-19T22:02:00.761Z,5.10
2018-12-19T22:04:29.650Z,5.10
2018-12-19T22:06:58.223Z,5.10
2018-12-19T22:09:27.297Z,5.10
2018-12-19T22:11:56.566Z,5.10
2018-12-19T22:14:25.927Z,5.10
2018-12-19T22:17:00.135Z,5.00
2018-12-19T22:19:28.666Z,5.10
2018-12-19T22:21:57.522Z,5.10
2018-12-19T22:24:27.192Z,5.00
2018-12-19T22:26:55.764Z,5.10
2018-12-19T22:29:25.345Z,5.10
2018-12-19T22:31:54.091Z,5.00
2018-12-19T22:34:22.768Z,5.10
2018-12-19T22:36:52.598Z,5.10
2018-12-19T22:39:22.550Z,5.10
2018-12-19T22:41:52.774Z,5.10
2018-12-19T22:44:21.510Z,5.10
2018-12-19T22:46:50.149Z,5.00
2018-12-19T22:49:19.540Z,5.00
2018-12-19T22:51:48.090Z,5.00
2018-12-19T22:54:16.703Z,5.00
2018-12-19T22:56:45.780Z,5.00
2018-12-19T22:59:14.971Z,5.00
2018-12-19T23:01:50.123Z,5.00
2018-12-19T23:04:18.876Z,5.00
2018-12-19T23:06:48.143Z,5.00
2018-12-19T23:09:17.402Z,5.10
2018-12-19T23:11:46.058Z,5.00
2018-12-19T23:14:15.802Z,5.00
2018-12-19T23:16:47.304Z,5.00
2018-12-19T23:19:17.004Z,5.00
2018-12-19T23:21:46.258Z,5.00
2018-12-19T23:24:15.516Z,5.00
2018-12-19T23:26:45.053Z,4.90
2018-12-19T23:29:14.627Z,4.90
2018-12-19T23:31:43.723Z,4.90
2018-12-19T23:34:12.252Z,4.80
2018-12-19T23:36:40.859Z,4.80
2018-12-19T23:39:09.549Z,4.70
2018-12-19T23:41:38.807Z,4.70
2018-12-19T23:44:08.101Z,4.70
2018-12-19T23:46:36.957Z,4.70
2018-12-19T23:49:05.465Z,4.70
2018-12-19T23:51:34.089Z,4.70
2018-12-19T23:54:04.344Z,4.60
2018-12-19T23:56:32.877Z,4.60
2018-12-19T23:59:02.091Z,4.60
